createdAt,value
2022-09-03T00:04:02.046Z,7.60
2022-09-03T00:09:07.604Z,7.50
2022-09-03T00:14:12.906Z,6.70
2022-09-03T00:19:17.950Z,6.60
2022-09-03T00:24:21.233Z,7.40
2022-09-03T00:29:25.655Z,7.10
2022-09-03T00:34:39.480Z,6.00
2022-09-03T00:39:42.852Z,6.70
2022-09-03T00:44:55.361Z,7.00
2022-09-03T00:50:30.085Z,5.70
2022-09-03T01:00:33.618Z,5.20
2022-09-03T01:05:35.759Z,5.10
2022-09-03T01:10:56.006Z,5.30
2022-09-03T01:16:16.725Z,5.60
2022-09-03T01:21:38.569Z,5.80
2022-09-03T01:26:47.685Z,5.60
2022-09-03T01:32:08.574Z,5.70
2022-09-03T01:37:13.362Z,5.50
2022-09-03T01:42:30.306Z,5.10
2022-09-03T01:47:35.102Z,5.40
2022-09-03T01:52:36.755Z,4.60
2022-09-03T01:57:42.055Z,4.50
2022-09-03T02:02:48.259Z,4.20
2022-09-03T02:07:54.952Z,4.50
2022-09-03T02:13:02.156Z,4.30
2022-09-03T02:18:05.219Z,4.90
2022-09-03T02:23:07.048Z,5.00
2022-09-03T02:28:26.345Z,4.70
2022-09-03T02:33:38.134Z,4.30
2022-09-03T02:38:41.669Z,4.90
2022-09-03T02:43:49.933Z,5.30
2022-09-03T02:48:51.608Z,4.80
2022-09-03T02:53:53.564Z,4.60
2022-09-03T02:59:15.358Z,5.90
2022-09-03T03:04:24.720Z,4.90
2022-09-03T03:09:26.787Z,4.70
2022-09-03T03:14:28.520Z,4.50
2022-09-03T03:19:30.213Z,5.30
2022-09-03T03:24:32.005Z,5.00
2022-09-03T03:29:34.102Z,6.00
2022-09-03T03:34:35.799Z,4.90
2022-09-03T03:39:37.546Z,5.10
2022-09-03T03:44:39.310Z,5.00
2022-09-03T03:49:41.026Z,4.80
2022-09-03T03:54:43.057Z,5.50
2022-09-03T03:59:45.243Z,5.10
2022-09-03T04:04:47.653Z,5.70
2022-09-03T04:09:49.513Z,5.40
2022-09-03T04:14:52.265Z,5.70
2022-09-03T04:19:53.989Z,6.00
2022-09-03T04:24:55.734Z,5.20
2022-09-03T04:30:00.555Z,11.30
2022-09-03T04:35:16.678Z,19.40
2022-09-03T04:40:18.433Z,15.00
2022-09-03T04:45:20.484Z,10.70
2022-09-03T04:50:23.289Z,6.50
2022-09-03T04:55:25.566Z,6.30
2022-09-03T05:00:27.743Z,4.40
2022-09-03T05:05:35.473Z,5.30
2022-09-03T05:10:37.524Z,5.10
2022-09-03T05:15:39.245Z,5.10
2022-09-03T05:20:40.942Z,7.40
2022-09-03T05:25:42.670Z,4.30
2022-09-03T05:30:45.552Z,5.60
2022-09-03T05:35:47.268Z,5.40
2022-09-03T05:40:49.049Z,5.70
2022-09-03T05:45:50.804Z,6.00
2022-09-03T05:51:05.443Z,5.10
2022-09-03T05:56:11.850Z,5.70
2022-09-03T06:01:14.458Z,5.70
2022-09-03T06:06:16.447Z,6.30
2022-09-03T06:11:18.180Z,5.00
2022-09-03T06:16:20.633Z,4.50
2022-09-03T06:21:32.830Z,5.30
2022-09-03T06:26:34.591Z,4.90
2022-09-03T06:31:36.638Z,4.90
2022-09-03T06:36:38.568Z,4.70
2022-09-03T06:42:00.337Z,4.40
2022-09-03T06:47:24.311Z,4.60
2022-09-03T06:52:58.413Z,4.30
2022-09-03T06:58:10.863Z,4.30
2022-09-03T07:03:12.708Z,5.20
2022-09-03T07:08:21.346Z,7.70
2022-09-03T07:13:31.036Z,5.70
2022-09-03T07:18:33.241Z,5.90
2022-09-03T07:23:35.733Z,5.50
2022-09-03T07:28:38.849Z,5.50
2022-09-03T07:33:41.314Z,4.20
2022-09-03T07:38:47.053Z,4.30
2022-09-03T07:43:49.285Z,4.00
2022-09-03T07:48:51.011Z,4.10
2022-09-03T07:53:54.181Z,3.80
2022-09-03T07:58:56.497Z,3.90
2022-09-03T08:03:58.551Z,3.30
2022-09-03T08:09:05.551Z,3.10
2022-09-03T08:14:08.560Z,2.70
2022-09-03T08:19:11.494Z,3.60
2022-09-03T08:24:14.951Z,3.40
2022-09-03T08:29:17.340Z,3.50
2022-09-03T08:34:39.337Z,2.80
2022-09-03T08:39:50.586Z,3.00
2022-09-03T08:45:00.682Z,2.90
2022-09-03T08:50:04.500Z,2.20
2022-09-03T08:55:27.950Z,3.00
2022-09-03T09:00:52.799Z,2.80
2022-09-03T09:05:57.815Z,2.30
2022-09-03T09:11:02.326Z,3.10
2022-09-03T09:16:04.916Z,3.10
2022-09-03T09:21:17.731Z,2.40
2022-09-03T09:26:22.551Z,2.30
2022-09-03T09:31:24.425Z,2.40
2022-09-03T09:36:45.810Z,2.40
2022-09-03T09:41:58.000Z,3.00
2022-09-03T09:47:08.628Z,2.80
2022-09-03T09:52:12.168Z,2.90
2022-09-03T09:57:18.043Z,2.50
2022-09-03T10:02:27.911Z,3.00
2022-09-03T10:07:42.849Z,3.20
2022-09-03T10:12:47.293Z,2.80
2022-09-03T10:18:07.908Z,3.30
2022-09-03T10:23:20.555Z,3.10
2022-09-03T10:28:24.227Z,2.80
2022-09-03T10:33:30.834Z,3.10
2022-09-03T10:38:44.821Z,10.50
2022-09-03T10:43:58.263Z,4.30
2022-09-03T10:49:00.000Z,3.30
2022-09-03T10:54:17.728Z,3.30
2022-09-03T10:59:33.689Z,3.40
2022-09-03T11:06:09.985Z,3.10
2022-09-03T11:11:26.601Z,4.30
2022-09-03T11:21:31.654Z,6.70
2022-09-03T11:26:35.306Z,4.00
2022-09-03T11:32:13.058Z,4.10
2022-09-03T11:37:19.716Z,4.00
2022-09-03T11:42:28.033Z,4.70
2022-09-03T11:47:40.779Z,5.50
2022-09-03T11:52:42.511Z,6.10
2022-09-03T11:57:44.297Z,6.30
2022-09-03T12:02:48.887Z,19.40
2022-09-03T12:07:59.628Z,8.70
2022-09-03T12:13:05.830Z,14.30
2022-09-03T12:18:22.711Z,7.70
2022-09-03T12:23:30.074Z,4.50
2022-09-03T12:28:35.918Z,6.70
2022-09-03T12:33:40.956Z,4.90
2022-09-03T12:39:18.548Z,6.00
2022-09-03T12:44:53.903Z,6.00
2022-09-03T12:49:58.537Z,9.80
2022-09-03T12:55:04.477Z,6.10
2022-09-03T13:00:10.661Z,6.10
2022-09-03T13:05:15.207Z,5.50
2022-09-03T13:10:24.036Z,5.60
2022-09-03T13:15:26.132Z,10.00
2022-09-03T13:20:29.442Z,11.90
2022-09-03T13:25:41.291Z,7.20
2022-09-03T13:30:52.684Z,9.60
2022-09-03T13:36:06.110Z,9.00
2022-09-03T13:41:10.854Z,9.00
2022-09-03T13:46:22.263Z,7.60
2022-09-03T13:51:27.898Z,4.20
2022-09-03T13:56:36.601Z,6.20
2022-09-03T14:01:44.621Z,5.00
2022-09-03T14:07:03.320Z,6.20
2022-09-03T14:12:17.338Z,4.90
2022-09-03T14:17:26.837Z,4.80
2022-09-03T14:22:31.596Z,4.50
2022-09-03T14:27:35.016Z,4.10
2022-09-03T14:32:59.577Z,4.20
2022-09-03T14:38:07.375Z,4.90
2022-09-03T14:43:30.965Z,5.80
2022-09-03T14:48:41.669Z,4.10
2022-09-03T14:54:05.215Z,4.20
2022-09-03T15:04:22.113Z,6.20
2022-09-03T15:09:40.294Z,6.20
2022-09-03T15:14:58.651Z,7.00
2022-09-03T15:20:24.211Z,3.70
2022-09-03T15:25:39.525Z,4.00
2022-09-03T15:30:44.286Z,5.30
2022-09-03T15:35:56.748Z,4.30
2022-09-03T15:41:02.684Z,4.50
2022-09-03T15:46:10.913Z,3.90
2022-09-03T15:51:15.667Z,4.70
2022-09-03T15:56:39.327Z,4.80
2022-09-03T16:01:41.398Z,5.70
2022-09-03T16:06:49.531Z,9.80
2022-09-03T16:12:09.900Z,5.10
2022-09-03T16:17:34.950Z,6.10
2022-09-03T16:22:49.387Z,7.00
2022-09-03T16:28:15.146Z,5.00
2022-09-03T16:33:28.394Z,6.70
2022-09-03T16:39:02.220Z,7.00
2022-09-03T16:44:38.774Z,7.00
2022-09-03T16:49:51.556Z,7.70
2022-09-03T16:54:55.950Z,6.80
2022-09-03T17:00:02.996Z,5.60
2022-09-03T17:05:23.747Z,8.80
2022-09-03T17:10:28.639Z,8.50
2022-09-03T17:15:30.403Z,5.80
2022-09-03T17:20:35.097Z,8.00
2022-09-03T17:25:38.698Z,9.30
2022-09-03T17:30:56.899Z,10.50
2022-09-03T17:36:06.396Z,17.70
2022-09-03T17:41:29.089Z,13.80
2022-09-03T17:46:49.669Z,15.20
2022-09-03T17:52:14.777Z,35.60
2022-09-03T17:57:21.973Z,14.90
2022-09-03T18:02:39.240Z,21.80
2022-09-03T18:07:47.433Z,16.60
2022-09-03T18:13:14.273Z,9.20
2022-09-03T18:18:27.651Z,7.20
2022-09-03T18:23:58.397Z,6.90
2022-09-03T18:29:18.609Z,7.60
2022-09-03T18:34:40.455Z,8.30
2022-09-03T18:40:03.164Z,14.30
2022-09-03T18:45:48.353Z,19.70
2022-09-03T18:51:16.727Z,12.60
2022-09-03T18:56:47.989Z,8.80
2022-09-03T19:02:08.332Z,8.70
2022-09-03T19:07:39.729Z,9.30
2022-09-03T19:13:23.619Z,10.50
2022-09-03T19:19:03.461Z,10.90
2022-09-03T19:24:24.057Z,9.00
2022-09-03T19:30:03.638Z,10.30
2022-09-03T19:35:28.972Z,10.60
2022-09-03T19:41:08.178Z,11.90
2022-09-03T19:46:32.001Z,11.90
2022-09-03T19:52:04.206Z,12.00
2022-09-03T19:57:24.764Z,11.50
2022-09-03T20:02:59.134Z,11.60
2022-09-03T20:08:20.295Z,10.80
2022-09-03T20:14:02.216Z,10.30
2022-09-03T20:19:10.941Z,10.70
2022-09-03T20:24:12.579Z,10.00
2022-09-03T20:29:17.445Z,9.90
2022-09-03T20:34:26.121Z,10.50
2022-09-03T20:39:33.905Z,10.70
2022-09-03T20:44:50.692Z,10.50
2022-09-03T20:50:10.999Z,9.90
2022-09-03T20:55:17.636Z,10.90
2022-09-03T21:00:21.232Z,9.20
2022-09-03T21:05:27.218Z,8.80
2022-09-03T21:10:34.281Z,8.60
2022-09-03T21:15:35.919Z,8.90
2022-09-03T21:20:40.869Z,9.40
2022-09-03T21:25:49.917Z,8.80
2022-09-03T21:30:58.481Z,8.90
2022-09-03T21:36:25.224Z,8.70
2022-09-03T21:41:49.477Z,7.60
2022-09-03T21:46:57.053Z,9.70
2022-09-03T21:52:02.039Z,10.00
2022-09-03T21:57:22.586Z,9.20
2022-09-03T22:02:28.657Z,9.60
2022-09-03T22:07:33.413Z,9.80
2022-09-03T22:12:35.053Z,8.90
2022-09-03T22:17:46.197Z,8.90
2022-09-03T22:22:56.639Z,8.90
2022-09-03T22:28:13.073Z,8.60
2022-09-03T22:33:47.460Z,7.70
2022-09-03T22:39:08.927Z,8.00
2022-09-03T22:44:30.862Z,7.70
2022-09-03T22:49:45.533Z,8.30
2022-09-03T22:54:54.621Z,8.40
2022-09-03T23:00:06.475Z,9.10
2022-09-03T23:05:08.663Z,9.60
2022-09-03T23:10:13.409Z,9.90
2022-09-03T23:15:30.311Z,9.20
2022-09-03T23:20:34.217Z,9.20
2022-09-03T23:25:37.781Z,10.50
2022-09-03T23:30:41.779Z,9.90
2022-09-03T23:35:53.576Z,9.90
2022-09-03T23:40:58.067Z,9.50
2022-09-03T23:46:14.482Z,9.70
2022-09-03T23:51:22.797Z,10.00
2022-09-03T23:56:32.204Z,9.60
